Time;durP1;ratioP1;P1;durP2;ratioP2;P2;SDS_P1;SDS_P2;PMS_P1;PMS_P2;Temp;Humidity;BMP_temperature;BMP_pressure;BME280_temperature;BME280_humidity;BME280_pressure;Samples;Min_cycle;Max_cycle;Signal;HPM_P1;HPM_P2
2022/11/27 00:01:30;;;;;;;;;;;;;;;4.34;61.49;96090.38;5114360;28;1004;-63
2022/11/27 00:03:56;;;;;;;;;;;;;;;4.16;62.72;96097.75;5114201;28;1322;-62
2022/11/27 00:06:24;;;;;;;;;;;;;;;4.32;61.77;96094.94;5112216;28;1271;-62
2022/11/27 00:08:50;;;;;;;;;;;;;;;4.32;61.92;96088.81;5114340;28;1910;-63
2022/11/27 00:11:20;;;;;;;;;;;;;;;4.30;62.53;96091.53;5114367;28;1208;-63
2022/11/27 00:13:47;;;;;;;;;;;;;;;4.35;62.16;96091.25;5114160;28;1078;-63
2022/11/27 00:16:13;;;;;;;;;;;;;;;4.41;62.08;96089.03;5112605;28;1492;-63
2022/11/27 00:18:39;;;;;;;;;;;;;;;4.39;62.36;96098.06;5113306;28;1051;-63
2022/11/27 00:21:17;;;;;;;;;;;;;;;4.31;62.33;96095.91;5114035;28;987;-63
2022/11/27 00:23:44;;;;;;;;;;;;;;;4.25;62.40;96090.97;5114219;28;1007;-63
2022/11/27 00:26:10;;;;;;;;;;;;;;;4.27;61.23;96095.25;5113766;28;1336;-63
2022/11/27 00:28:37;;;;;;;;;;;;;;;4.13;61.57;96097.94;5112730;28;1991;-63
2022/11/27 00:31:04;;;;;;;;;;;;;;;4.11;61.44;96092.72;5113910;28;1014;-63
2022/11/27 00:33:31;;;;;;;;;;;;;;;4.11;60.80;96090.06;5114081;28;1079;-63
2022/11/27 00:36:00;;;;;;;;;;;;;;;4.01;61.82;96098.72;5113786;28;1083;-63
2022/11/27 00:38:26;;;;;;;;;;;;;;;4.07;61.36;96096.53;5113475;28;1119;-63
2022/11/27 00:40:52;;;;;;;;;;;;;;;4.14;61.18;96096.16;5113856;28;968;-63
2022/11/27 00:43:19;;;;;;;;;;;;;;;3.98;61.74;96094.47;5113746;28;1038;-63
2022/11/27 00:45:48;;;;;;;;;;;;;;;4.00;61.66;96094.38;5113296;28;1250;-62
2022/11/27 00:48:14;;;;;;;;;;;;;;;4.03;61.92;96089.72;5113518;28;1987;-63
2022/11/27 00:50:40;;;;;;;;;;;;;;;3.95;62.48;96088.53;5113899;28;1038;-62
2022/11/27 00:53:06;;;;;;;;;;;;;;;4.03;61.90;96086.25;5113728;28;1044;-63
2022/11/27 00:55:32;;;;;;;;;;;;;;;4.19;60.76;96096.69;5113806;28;964;-62
2022/11/27 00:57:58;;;;;;;;;;;;;;;4.11;60.92;96100.66;5113522;28;1200;-62
2022/11/27 01:00:24;;;;;;;;;;;;;;;4.08;61.23;96103.53;5113545;28;1003;-62
2022/11/27 01:02:50;;;;;;;;;;;;;;;3.98;61.64;96097.09;5113534;28;1048;-62
2022/11/27 01:05:16;;;;;;;;;;;;;;;3.76;62.82;96091.50;5113472;28;1160;-62
2022/11/27 01:07:42;;;;;;;;;;;;;;;3.90;61.86;96092.31;5113479;28;1047;-62
2022/11/27 01:10:09;;;;;;;;;;;;;;;3.89;61.71;96092.41;5113462;28;1906;-63
2022/11/27 01:12:35;;;;;;;;;;;;;;;3.87;62.02;96089.88;5113532;28;1122;-62
2022/11/27 01:15:01;;;;;;;;;;;;;;;3.83;62.47;96098.06;5113452;28;1110;-62
2022/11/27 01:17:27;;;;;;;;;;;;;;;3.84;63.04;96089.22;5113182;28;1029;-62
2022/11/27 01:19:53;;;;;;;;;;;;;;;3.93;62.35;96088.63;5113644;28;1012;-62
2022/11/27 01:22:19;;;;;;;;;;;;;;;4.00;62.76;96092.56;5113450;28;1071;-62
2022/11/27 01:24:45;;;;;;;;;;;;;;;4.05;62.17;96095.78;5113549;28;993;-62
2022/11/27 01:27:11;;;;;;;;;;;;;;;4.00;61.60;96073.19;5113024;28;1067;-62
2022/11/27 01:29:37;;;;;;;;;;;;;;;3.86;62.42;96082.88;5113269;28;1988;-62
2022/11/27 01:32:03;;;;;;;;;;;;;;;3.65;63.65;96068.34;5117024;28;1004;-63
2022/11/27 01:34:29;;;;;;;;;;;;;;;3.82;62.95;96077.88;5117195;28;1020;-63
2022/11/27 01:36:55;;;;;;;;;;;;;;;3.85;63.01;96077.66;5116774;28;1119;-63
2022/11/27 01:39:23;;;;;;;;;;;;;;;3.80;63.45;96079.78;5116904;28;1041;-62
2022/11/27 01:41:49;;;;;;;;;;;;;;;3.94;62.73;96073.59;5116325;28;1398;-63
2022/11/27 01:44:24;;;;;;;;;;;;;;;3.97;62.14;96079.53;5116393;28;1238;-63
2022/11/27 01:46:55;;;;;;;;;;;;;;;3.97;62.49;96081.34;5117110;28;1040;-62
2022/11/27 01:49:22;;;;;;;;;;;;;;;3.90;63.35;96076.44;5116685;28;1906;-62
2022/11/27 01:51:52;;;;;;;;;;;;;;;3.97;62.40;96082.19;5115576;28;1118;-63
2022/11/27 01:54:20;;;;;;;;;;;;;;;4.00;61.86;96081.97;5115329;28;1089;-61
2022/11/27 01:56:49;;;;;;;;;;;;;;;3.96;62.41;96082.28;5116674;28;957;-62
2022/11/27 01:59:16;;;;;;;;;;;;;;;3.79;63.76;96081.53;5116773;28;1063;-62
2022/11/27 02:01:42;;;;;;;;;;;;;;;3.96;62.92;96074.34;5115904;28;917;-62
2022/11/27 02:04:08;;;;;;;;;;;;;;;3.84;63.23;96073.34;5116320;28;1156;-62
2022/11/27 02:06:34;;;;;;;;;;;;;;;3.80;63.63;96077.97;5116581;28;1028;-62
2022/11/27 02:09:00;;;;;;;;;;;;;;;3.94;63.01;96079.72;5116434;28;1995;-62
2022/11/27 02:11:26;;;;;;;;;;;;;;;3.91;63.16;96086.06;5116343;28;957;-63
2022/11/27 02:14:04;;;;;;;;;;;;;;;4.01;62.46;96078.41;5115378;28;1075;-62
2022/11/27 02:16:46;;;;;;;;;;;;;;;3.94;62.52;96084.19;5116299;28;1048;-63
2022/11/27 02:19:12;;;;;;;;;;;;;;;3.88;62.97;96080.13;5116233;28;1028;-62
2022/11/27 02:21:45;;;;;;;;;;;;;;;3.71;64.06;96079.38;5116312;28;1058;-63
2022/11/27 02:24:18;;;;;;;;;;;;;;;3.87;63.09;96081.06;5116063;28;988;-62
2022/11/27 02:26:56;;;;;;;;;;;;;;;3.83;63.62;96079.56;5116096;28;1075;-62
2022/11/27 02:29:24;;;;;;;;;;;;;;;3.95;63.70;96078.78;5116014;28;1993;-62
2022/11/27 02:31:58;;;;;;;;;;;;;;;3.83;64.18;96074.28;5116110;28;1007;-63
2022/11/27 02:34:24;;;;;;;;;;;;;;;3.78;64.05;96068.44;5115858;28;967;-63
2022/11/27 02:37:01;;;;;;;;;;;;;;;3.86;63.72;96068.78;5116127;28;964;-63
2022/11/27 02:39:32;;;;;;;;;;;;;;;3.96;63.36;96069.91;5115964;28;1108;-63
2022/11/27 02:42:18;;;;;;;;;;;;;;;3.72;64.27;96078.44;5115014;28;1003;-62
2022/11/27 02:45:11;;;;;;;;;;;;;;;3.74;64.41;96085.44;5115571;28;1115;-63
2022/11/27 02:47:38;;;;;;;;;;;;;;;3.84;64.11;96081.28;5112983;28;1161;-62
2022/11/27 02:50:08;;;;;;;;;;;;;;;3.96;63.44;96074.34;5115745;28;1901;-62
2022/11/27 02:52:35;;;;;;;;;;;;;;;4.05;62.53;96077.25;5115652;28;1075;-63
2022/11/27 02:55:03;;;;;;;;;;;;;;;3.74;63.75;96086.28;5115647;28;1043;-62
2022/11/27 02:57:30;;;;;;;;;;;;;;;3.79;63.61;96084.19;5115400;28;1031;-62
2022/11/27 02:59:57;;;;;;;;;;;;;;;3.81;63.34;96089.38;5115659;28;1082;-63
2022/11/27 03:02:28;;;;;;;;;;;;;;;3.87;63.17;96086.34;5115326;28;1025;-63
2022/11/27 03:04:56;;;;;;;;;;;;;;;3.77;63.90;96083.44;5115271;28;1185;-63
2022/11/27 03:07:29;;;;;;;;;;;;;;;3.74;63.69;96075.72;5115299;28;1000;-62
2022/11/27 03:09:57;;;;;;;;;;;;;;;3.87;63.62;96078.41;5115215;28;1915;-63
2022/11/27 03:12:24;;;;;;;;;;;;;;;3.80;63.97;96080.63;5114144;28;1011;-62
2022/11/27 03:14:50;;;;;;;;;;;;;;;3.79;64.47;96083.34;5115184;28;1103;-62
2022/11/27 03:17:21;;;;;;;;;;;;;;;3.65;65.29;96085.06;5115191;28;1051;-62
2022/11/27 03:19:51;;;;;;;;;;;;;;;3.75;64.31;96089.78;5115189;28;1201;-63
2022/11/27 03:22:17;;;;;;;;;;;;;;;3.43;65.99;96079.41;5115016;28;1043;-62
2022/11/27 03:24:44;;;;;;;;;;;;;;;3.63;65.10;96081.66;5114903;28;1024;-62
2022/11/27 03:27:15;;;;;;;;;;;;;;;3.78;64.41;96086.97;5115023;28;961;-63
2022/11/27 03:29:47;;;;;;;;;;;;;;;3.66;65.18;96083.25;5114781;28;1976;-63
2022/11/27 03:32:13;;;;;;;;;;;;;;;3.65;65.25;96086.88;5114898;28;1027;-62
2022/11/27 03:34:40;;;;;;;;;;;;;;;3.85;63.98;96086.47;5113635;28;1004;-63
2022/11/27 03:37:06;;;;;;;;;;;;;;;3.85;64.16;96077.66;5114626;28;996;-63
2022/11/27 03:39:33;;;;;;;;;;;;;;;3.78;64.83;96076.38;5113808;28;981;-62
2022/11/27 03:41:59;;;;;;;;;;;;;;;3.84;64.99;96081.28;5114895;28;1027;-63
2022/11/27 03:44:31;;;;;;;;;;;;;;;3.84;65.39;96082.13;5114532;28;1092;-63
2022/11/27 03:46:57;;;;;;;;;;;;;;;3.87;65.49;96081.06;5114479;28;1055;-63
2022/11/27 03:49:28;;;;;;;;;;;;;;;3.93;64.50;96075.41;5114361;28;1996;-62
2022/11/27 03:52:02;;;;;;;;;;;;;;;3.96;63.93;96074.34;5114507;28;1048;-63
2022/11/27 03:54:47;;;;;;;;;;;;;;;3.95;64.03;96073.50;5114378;28;991;-62
2022/11/27 03:57:22;;;;;;;;;;;;;;;3.71;65.34;96073.25;5114254;28;1040;-62
2022/11/27 03:59:51;;;;;;;;;;;;;;;3.81;64.85;96076.16;5114381;28;1011;-62
2022/11/27 04:02:26;;;;;;;;;;;;;;;3.98;64.16;96068.00;5114180;28;1051;-62
2022/11/27 04:04:52;;;;;;;;;;;;;;;4.02;64.00;96076.59;5113065;28;1339;-63
2022/11/27 04:07:18;;;;;;;;;;;;;;;3.98;64.08;96070.63;5114373;28;1051;-63
2022/11/27 04:09:45;;;;;;;;;;;;;;;3.88;64.84;96080.97;5114106;28;1910;-63
2022/11/27 04:12:11;;;;;;;;;;;;;;;3.68;65.93;96084.00;5114094;28;1028;-62
2022/11/27 04:14:37;;;;;;;;;;;;;;;3.79;65.37;96088.63;5114071;28;1076;-62
2022/11/27 04:17:03;;;;;;;;;;;;;;;3.92;64.79;96092.22;5114105;28;1040;-62
2022/11/27 04:19:29;;;;;;;;;;;;;;;3.99;64.39;96090.03;5114201;28;972;-63
2022/11/27 04:21:55;;;;;;;;;;;;;;;3.99;64.40;96082.94;5114005;28;1075;-63
2022/11/27 04:24:21;;;;;;;;;;;;;;;3.96;64.56;96083.13;5114039;28;1028;-63
2022/11/27 04:26:47;;;;;;;;;;;;;;;3.98;64.74;96078.59;5114104;28;1039;-63
2022/11/27 04:29:13;;;;;;;;;;;;;;;4.02;64.69;96088.03;5113886;28;1982;-63
2022/11/27 04:31:39;;;;;;;;;;;;;;;4.07;64.67;96096.53;5113893;28;1024;-63
2022/11/27 04:34:05;;;;;;;;;;;;;;;4.09;64.79;96091.97;5114144;28;1030;-63
2022/11/27 04:36:31;;;;;;;;;;;;;;;4.08;65.26;96103.53;5114044;28;956;-62
2022/11/27 04:38:57;;;;;;;;;;;;;;;4.13;64.66;96091.78;5114039;28;1032;-63
2022/11/27 04:41:23;;;;;;;;;;;;;;;4.06;64.34;96092.19;5112689;28;1034;-62
2022/11/27 04:43:49;;;;;;;;;;;;;;;4.05;64.76;96100.22;5113855;28;1099;-63
2022/11/27 04:46:15;;;;;;;;;;;;;;;4.05;64.54;96100.22;5113532;28;1219;-62
2022/11/27 04:48:41;;;;;;;;;;;;;;;4.04;64.24;96101.16;5113864;28;1996;-63
2022/11/27 04:51:07;;;;;;;;;;;;;;;3.99;64.96;96101.47;5113646;28;1060;-63
2022/11/27 04:53:34;;;;;;;;;;;;;;;3.99;65.10;96101.47;5113835;28;980;-63
2022/11/27 04:56:00;;;;;;;;;;;;;;;3.97;64.62;96102.53;5113829;28;972;-62
2022/11/27 04:58:26;;;;;;;;;;;;;;;3.70;66.26;96112.09;5113667;28;1007;-63
2022/11/27 05:00:52;;;;;;;;;;;;;;;3.68;66.66;96118.41;5113632;28;1047;-61
2022/11/27 05:03:18;;;;;;;;;;;;;;;3.92;65.85;96105.44;5113606;28;1020;-63
2022/11/27 05:05:44;;;;;;;;;;;;;;;4.02;65.42;96114.50;5114000;28;1157;-63
2022/11/27 05:08:10;;;;;;;;;;;;;;;4.10;65.32;96112.22;5117659;28;956;-62
2022/11/27 05:10:36;;;;;;;;;;;;;;;4.19;64.70;96115.22;5117602;28;1902;-61
2022/11/27 05:13:02;;;;;;;;;;;;;;;4.06;65.22;96115.13;5117480;28;1032;-63
2022/11/27 05:15:28;;;;;;;;;;;;;;;4.11;64.99;96127.13;5117374;28;1043;-62
2022/11/27 05:17:54;;;;;;;;;;;;;;;3.97;65.82;96123.69;5117697;28;1027;-62
2022/11/27 05:20:20;;;;;;;;;;;;;;;4.00;65.78;96121.66;5117219;28;1083;-63
2022/11/27 05:22:48;;;;;;;;;;;;;;;4.05;64.89;96114.28;5117518;28;1043;-65
2022/11/27 05:25:14;;;;;;;;;;;;;;;3.92;65.43;96116.88;5117262;28;1087;-63
2022/11/27 05:27:40;;;;;;;;;;;;;;;3.98;66.02;96114.78;5117201;28;1044;-63
2022/11/27 05:30:06;;;;;;;;;;;;;;;4.04;66.22;96117.91;5117103;28;1897;-64
2022/11/27 05:32:33;;;;;;;;;;;;;;;4.12;66.01;96120.06;5117201;28;1207;-64
2022/11/27 05:34:59;;;;;;;;;;;;;;;4.09;65.69;96118.44;5117352;28;1071;-65
2022/11/27 05:37:25;;;;;;;;;;;;;;;3.85;67.03;96120.88;5117048;28;1032;-64
2022/11/27 05:39:51;;;;;;;;;;;;;;;3.89;67.24;96121.53;5117129;28;1015;-63
2022/11/27 05:42:17;;;;;;;;;;;;;;;3.99;67.29;96125.28;5115859;28;1071;-64
2022/11/27 05:44:43;;;;;;;;;;;;;;;4.13;66.76;96126.19;5116678;28;1084;-63
2022/11/27 05:47:09;;;;;;;;;;;;;;;4.18;65.87;96117.03;5116849;28;1047;-63
2022/11/27 05:49:36;;;;;;;;;;;;;;;4.24;65.71;96119.25;5116958;28;2000;-63
2022/11/27 05:52:02;;;;;;;;;;;;;;;4.26;65.76;96117.38;5116952;28;977;-63
2022/11/27 05:54:28;;;;;;;;;;;;;;;4.25;65.86;96123.63;5116891;28;1022;-63
2022/11/27 05:56:54;;;;;;;;;;;;;;;4.25;65.81;96122.75;5116760;28;1095;-64
2022/11/27 05:59:20;;;;;;;;;;;;;;;4.31;65.61;96119.72;5116505;28;1043;-62
2022/11/27 06:01:48;;;;;;;;;;;;;;;4.27;65.92;96118.25;5116611;28;1107;-63
2022/11/27 06:04:14;;;;;;;;;;;;;;;4.33;65.69;96122.28;5116459;28;1161;-63
2022/11/27 06:06:40;;;;;;;;;;;;;;;4.31;65.99;96122.38;5116732;28;980;-64
2022/11/27 06:09:06;;;;;;;;;;;;;;;4.29;66.16;96119.81;5115250;28;1975;-64
2022/11/27 06:11:32;;;;;;;;;;;;;;;4.32;66.23;96121.41;5116486;28;1019;-63
2022/11/27 06:13:58;;;;;;;;;;;;;;;4.39;66.29;96130.66;5116363;28;1024;-63
2022/11/27 06:16:24;;;;;;;;;;;;;;;4.42;66.00;96130.47;5116477;28;1034;-63
2022/11/27 06:18:51;;;;;;;;;;;;;;;4.43;66.16;96140.13;5116457;28;1032;-64
2022/11/27 06:21:18;;;;;;;;;;;;;;;4.47;65.84;96136.31;5115176;28;1060;-64
2022/11/27 06:23:44;;;;;;;;;;;;;;;4.52;66.38;96140.47;5116285;28;971;-63
2022/11/27 06:26:17;;;;;;;;;;;;;;;4.60;65.67;96133.72;5116190;28;1039;-62
2022/11/27 06:28:44;;;;;;;;;;;;;;;4.64;66.33;96127.25;5116004;28;1910;-63
2022/11/27 06:31:15;;;;;;;;;;;;;;;4.69;66.26;96127.81;5116026;28;1075;-64
2022/11/27 06:33:41;;;;;;;;;;;;;;;4.72;66.07;96128.56;5115980;28;1060;-63
2022/11/27 06:36:07;;;;;;;;;;;;;;;4.75;65.73;96131.03;5115849;28;1087;-63
2022/11/27 06:38:34;;;;;;;;;;;;;;;4.71;66.05;96133.03;5115908;28;1063;-63
2022/11/27 06:41:05;;;;;;;;;;;;;;;4.72;65.96;96128.56;5115920;28;1052;-63
2022/11/27 06:43:31;;;;;;;;;;;;;;;4.77;66.54;96132.59;5115622;28;1083;-60
2022/11/27 06:45:58;;;;;;;;;;;;;;;4.75;66.53;96129.22;5115718;27;1233;-63
2022/11/27 06:48:24;;;;;;;;;;;;;;;4.76;66.85;96128.28;5115584;28;1922;-63
2022/11/27 06:50:50;;;;;;;;;;;;;;;4.82;67.03;96127.88;5115833;28;1087;-64
2022/11/27 06:53:16;;;;;;;;;;;;;;;4.95;66.20;96133.19;5115536;28;1028;-64
2022/11/27 06:55:42;;;;;;;;;;;;;;;5.04;66.54;96139.66;5115510;28;1023;-63
2022/11/27 06:58:09;;;;;;;;;;;;;;;5.04;66.40;96142.31;5115674;28;968;-63
2022/11/27 07:00:35;;;;;;;;;;;;;;;5.01;66.57;96137.25;5115688;28;984;-63
2022/11/27 07:03:01;;;;;;;;;;;;;;;5.02;65.63;96141.56;5115399;28;1032;-63
2022/11/27 07:05:28;;;;;;;;;;;;;;;5.09;66.09;96137.56;5115352;28;1177;-64
2022/11/27 07:07:55;;;;;;;;;;;;;;;5.10;66.04;96136.59;5115403;28;1035;-64
2022/11/27 07:10:21;;;;;;;;;;;;;;;5.20;65.75;96143.00;5115101;28;1918;-63
2022/11/27 07:12:47;;;;;;;;;;;;;;;5.22;66.04;96137.59;5115489;27;961;-63
2022/11/27 07:15:13;;;;;;;;;;;;;;;5.24;66.00;96141.81;5115072;28;1087;-63
2022/11/27 07:17:40;;;;;;;;;;;;;;;5.24;65.98;96139.19;5115312;28;1039;-63
2022/11/27 07:20:07;;;;;;;;;;;;;;;5.23;66.37;96139.28;5111969;28;1652;-64
2022/11/27 07:22:33;;;;;;;;;;;;;;;5.26;66.04;96139.06;5115138;28;1047;-63
2022/11/27 07:24:59;;;;;;;;;;;;;;;5.24;66.55;96146.28;5114961;28;1039;-64
2022/11/27 07:27:25;;;;;;;;;;;;;;;5.19;67.14;96138.63;5115121;28;973;-64
2022/11/27 07:29:51;;;;;;;;;;;;;;;5.32;67.07;96135.16;5114357;28;2011;-64
2022/11/27 07:32:17;;;;;;;;;;;;;;;5.46;66.56;96135.91;5113531;28;1145;-63
2022/11/27 07:34:43;;;;;;;;;;;;;;;5.53;66.42;96132.84;5114809;28;1043;-64
2022/11/27 07:37:09;;;;;;;;;;;;;;;5.55;66.48;96131.75;5113576;28;1021;-64
2022/11/27 07:39:35;;;;;;;;;;;;;;;5.53;66.62;96123.06;5113551;28;965;-64
2022/11/27 07:42:01;;;;;;;;;;;;;;;5.50;66.72;96117.97;5114445;28;1028;-64
2022/11/27 07:44:27;;;;;;;;;;;;;;;5.59;66.15;96117.31;5114609;28;1088;-64
2022/11/27 07:46:53;;;;;;;;;;;;;;;5.63;66.40;96118.84;5114610;28;1036;-63
2022/11/27 07:49:20;;;;;;;;;;;;;;;5.72;65.93;96119.13;5114061;28;1994;-64
2022/11/27 07:51:46;;;;;;;;;;;;;;;5.64;66.32;96119.69;5114359;28;1159;-64
2022/11/27 07:54:12;;;;;;;;;;;;;;;5.71;66.02;96120.94;5114342;28;1091;-63
2022/11/27 07:56:38;;;;;;;;;;;;;;;5.75;66.04;96121.56;5114430;28;1032;-63
2022/11/27 07:59:04;;;;;;;;;;;;;;;5.76;66.47;96124.09;5114512;28;1014;-63
2022/11/27 08:01:30;;;;;;;;;;;;;;;5.80;66.62;96114.97;5114080;28;1032;-63
2022/11/27 08:03:56;;;;;;;;;;;;;;;5.81;66.35;96121.97;5114353;28;1406;-63
2022/11/27 08:06:23;;;;;;;;;;;;;;;5.88;66.48;96117.09;5114287;28;956;-63
2022/11/27 08:08:50;;;;;;;;;;;;;;;5.98;66.43;96122.66;5114115;28;1913;-63
2022/11/27 08:11:16;;;;;;;;;;;;;;;6.05;66.48;96118.56;5113800;28;1032;-63
2022/11/27 08:13:43;;;;;;;;;;;;;;;6.04;66.87;96119.53;5114390;28;1293;-63
2022/11/27 08:16:09;;;;;;;;;;;;;;;6.03;66.72;96125.78;5114196;28;1054;-63
2022/11/27 08:18:34;;;;;;;;;;;;;;;6.00;66.52;96121.56;5114197;28;1059;-63
2022/11/27 08:21:00;;;;;;;;;;;;;;;5.98;66.70;96123.47;5113774;28;1283;-63
2022/11/27 08:23:27;;;;;;;;;;;;;;;5.96;66.57;96127.22;5113863;28;1040;-63
2022/11/27 08:25:53;;;;;;;;;;;;;;;6.00;66.63;96118.06;5114015;28;1316;-64
2022/11/27 08:28:19;;;;;;;;;;;;;;;6.12;66.95;96126.97;5113853;28;1222;-62
2022/11/27 08:30:45;;;;;;;;;;;;;;;6.26;66.28;96121.50;5113785;28;1979;-63
2022/11/27 08:33:14;;;;;;;;;;;;;;;6.32;65.78;96117.53;5112806;28;976;-63
2022/11/27 08:35:46;;;;;;;;;;;;;;;6.31;65.58;96118.50;5113960;28;973;-63
2022/11/27 08:38:12;;;;;;;;;;;;;;;6.36;65.82;96114.56;5113791;28;1246;-63
2022/11/27 08:40:38;;;;;;;;;;;;;;;6.41;65.75;96119.53;5115218;28;1091;-63
2022/11/27 08:43:04;;;;;;;;;;;;;;;6.47;65.56;96118.22;5118356;28;985;-64
2022/11/27 08:45:31;;;;;;;;;;;;;;;6.43;65.34;96120.25;5117969;28;1235;-64
2022/11/27 08:47:58;;;;;;;;;;;;;;;6.38;65.91;96123.28;5118253;28;968;-63
2022/11/27 08:50:24;;;;;;;;;;;;;;;6.50;66.00;96120.69;5116474;28;1988;-63
2022/11/27 08:52:50;;;;;;;;;;;;;;;6.53;64.91;96129.28;5117806;28;1036;-63
2022/11/27 08:55:16;;;;;;;;;;;;;;;6.48;65.06;96122.59;5117814;28;1127;-62
2022/11/27 08:57:42;;;;;;;;;;;;;;;6.51;64.85;96117.06;5118061;28;980;-62
2022/11/27 09:00:08;;;;;;;;;;;;;;;6.56;63.92;96120.22;5117734;28;1088;-63
2022/11/27 09:02:34;;;;;;;;;;;;;;;6.58;63.58;96111.19;5097386;28;1048;-64
2022/11/27 09:05:01;;;;;;;;;;;;;;;6.64;63.32;96121.38;5106401;28;1142;-64
2022/11/27 09:07:28;;;;;;;;;;;;;;;6.66;63.09;96113.28;5117530;28;1039;-64
2022/11/27 09:09:54;;;;;;;;;;;;;;;6.72;63.04;96118.13;5117548;28;1995;-64
2022/11/27 09:12:20;;;;;;;;;;;;;;;6.81;62.88;96113.94;5117420;28;1191;-63
2022/11/27 09:14:46;;;;;;;;;;;;;;;6.90;61.71;96115.91;5117738;28;975;-64
2022/11/27 09:17:13;;;;;;;;;;;;;;;6.97;62.29;96111.81;5117570;28;1036;-64
2022/11/27 09:19:39;;;;;;;;;;;;;;;7.02;62.11;96108.84;5117550;28;1203;-64
2022/11/27 09:22:05;;;;;;;;;;;;;;;7.11;61.42;96113.44;5117105;27;1066;-65
2022/11/27 09:24:31;;;;;;;;;;;;;;;7.24;61.24;96095.56;5117318;28;1115;-64
2022/11/27 09:26:57;;;;;;;;;;;;;;;7.40;61.09;96092.59;5117479;28;999;-64
2022/11/27 09:29:23;;;;;;;;;;;;;;;7.51;60.69;96101.56;5117166;28;1994;-64
2022/11/27 09:31:49;;;;;;;;;;;;;;;7.54;60.41;96085.38;5116988;28;1250;-64
2022/11/27 09:34:16;;;;;;;;;;;;;;;7.61;60.45;96087.41;5117022;28;1098;-64
2022/11/27 09:36:43;;;;;;;;;;;;;;;7.67;60.39;96088.75;5117071;28;983;-64
2022/11/27 09:39:08;;;;;;;;;;;;;;;7.67;60.40;96091.41;5117169;28;1020;-64
2022/11/27 09:41:41;;;;;;;;;;;;;;;7.70;60.86;96075.22;5116722;28;1256;-64
2022/11/27 09:44:22;;;;;;;;;;;;;;;7.65;60.78;96072.06;5117075;28;1059;-64
2022/11/27 09:46:49;;;;;;;;;;;;;;;7.75;60.79;96069.53;5116944;28;1043;-64
2022/11/27 09:49:26;;;;;;;;;;;;;;;7.78;60.91;96064.81;5116642;28;1906;-64
2022/11/27 09:51:52;;;;;;;;;;;;;;;7.86;59.63;96068.69;5116422;28;1243;-64
2022/11/27 09:54:32;;;;;;;;;;;;;;;7.90;60.55;96065.63;5116948;28;960;-64
2022/11/27 09:56:58;;;;;;;;;;;;;;;7.95;60.50;96059.97;5116892;28;1048;-64
2022/11/27 09:59:28;;;;;;;;;;;;;;;7.86;60.82;96048.22;5116636;28;1047;-63
2022/11/27 10:01:55;;;;;;;;;;;;;;;7.75;61.15;96054.38;5116316;28;1192;-64
2022/11/27 10:04:21;;;;;;;;;;;;;;;7.79;60.52;96050.50;5116584;28;1269;-64
2022/11/27 10:07:10;;;;;;;;;;;;;;;7.92;60.92;96050.38;5116659;28;1042;-63
2022/11/27 10:09:51;;;;;;;;;;;;;;;8.07;60.17;96048.31;5107467;28;1905;-63
2022/11/27 10:12:25;;;;;;;;;;;;;;;8.14;59.67;96046.84;5115974;28;1036;-64
2022/11/27 10:15:03;;;;;;;;;;;;;;;8.21;60.23;96041.84;5116678;28;999;-64
2022/11/27 10:18:01;;;;;;;;;;;;;;;8.32;59.58;96036.50;5116462;28;1240;-64
2022/11/27 10:20:42;;;;;;;;;;;;;;;8.38;59.53;96038.69;5081780;28;1227;-64
2022/11/27 10:23:17;;;;;;;;;;;;;;;8.27;58.80;96038.72;5116372;28;1036;-64
2022/11/27 10:26:03;;;;;;;;;;;;;;;8.23;59.64;96034.56;5116124;28;1036;-64
2022/11/27 10:28:38;;;;;;;;;;;;;;;8.23;59.99;96033.75;5115965;28;1223;-63
2022/11/27 10:31:10;;;;;;;;;;;;;;;8.24;59.62;96032.78;5115843;28;1047;-64
2022/11/27 10:33:42;;;;;;;;;;;;;;;8.33;58.58;96029.38;5116237;28;964;-64
2022/11/27 10:36:17;;;;;;;;;;;;;;;8.46;59.02;96029.22;5116062;28;964;-64
2022/11/27 10:38:45;;;;;;;;;;;;;;;8.56;59.01;96023.00;5115872;28;1091;-64
2022/11/27 10:41:31;;;;;;;;;;;;;;;8.61;58.71;96014.63;5115606;28;1189;-63
2022/11/27 10:43:59;;;;;;;;;;;;;;;8.62;58.93;96016.31;5115711;28;1089;-64
2022/11/27 10:46:30;;;;;;;;;;;;;;;8.70;58.55;96013.84;5115527;28;1319;-63
2022/11/27 10:48:56;;;;;;;;;;;;;;;8.82;58.30;95997.78;5115615;28;1910;-63
2022/11/27 10:51:28;;;;;;;;;;;;;;;8.84;58.54;96007.38;5115320;28;1193;-64
2022/11/27 10:53:54;;;;;;;;;;;;;;;8.94;57.32;96000.28;5115637;28;1072;-62
2022/11/27 10:56:50;;;;;;;;;;;;;;;8.97;57.18;95999.16;5115502;28;973;-62
2022/11/27 10:59:22;;;;;;;;;;;;;;;8.92;57.54;95993.38;5115478;28;1048;-62
2022/11/27 11:01:52;;;;;;;;;;;;;;;8.94;58.02;95994.09;5115375;28;1159;-62
2022/11/27 11:04:24;;;;;;;;;;;;;;;8.92;58.91;95990.72;5114520;28;1153;-62
2022/11/27 11:06:50;;;;;;;;;;;;;;;8.97;58.26;95993.81;5115430;28;1054;-62
2022/11/27 11:09:27;;;;;;;;;;;;;;;9.06;57.69;95982.38;5114024;28;1909;-62
2022/11/27 11:12:05;;;;;;;;;;;;;;;9.06;57.91;95984.19;5115082;27;1142;-61
2022/11/27 11:14:30;;;;;;;;;;;;;;;9.07;57.95;95984.06;5115390;28;1039;-61
2022/11/27 11:16:57;;;;;;;;;;;;;;;9.07;57.64;95973.41;5115177;28;1075;-61
2022/11/27 11:19:33;;;;;;;;;;;;;;;9.09;57.16;95965.28;5115332;27;1282;-61
2022/11/27 11:22:02;;;;;;;;;;;;;;;9.01;57.69;95965.06;5113687;28;1130;-61
2022/11/27 11:24:29;;;;;;;;;;;;;;;8.98;57.13;95959.03;5114950;28;1316;-59
2022/11/27 11:26:58;;;;;;;;;;;;;;;9.01;56.81;95951.72;5115089;28;961;-60
2022/11/27 11:29:30;;;;;;;;;;;;;;;8.94;57.24;95954.09;5114833;28;2000;-60
2022/11/27 11:31:58;;;;;;;;;;;;;;;8.87;57.54;95952.91;5114616;28;1209;-59
2022/11/27 11:34:28;;;;;;;;;;;;;;;8.82;56.49;95952.47;5115001;28;1079;-59
2022/11/27 11:37:00;;;;;;;;;;;;;;;8.83;56.70;95946.16;5114998;28;1031;-60
2022/11/27 11:39:28;;;;;;;;;;;;;;;8.82;57.18;95941.78;5114727;28;1099;-59
2022/11/27 11:41:54;;;;;;;;;;;;;;;8.83;56.72;95955.00;5114457;28;1009;-59
2022/11/27 11:44:38;;;;;;;;;;;;;;;8.69;56.96;95947.31;5114381;28;1044;-60
2022/11/27 11:47:04;;;;;;;;;;;;;;;8.71;57.65;95943.56;5113617;28;977;-59
2022/11/27 11:49:32;;;;;;;;;;;;;;;8.81;57.25;95929.44;5114458;28;1905;-60
2022/11/27 11:52:20;;;;;;;;;;;;;;;8.81;57.90;95932.13;5114407;28;1229;-60
2022/11/27 11:55:05;;;;;;;;;;;;;;;8.89;57.28;95918.97;5114358;28;1095;-59
2022/11/27 11:57:33;;;;;;;;;;;;;;;9.01;56.70;95920.59;5114440;28;1112;-60
2022/11/27 12:00:08;;;;;;;;;;;;;;;9.05;56.91;95916.66;5114536;28;940;-60
2022/11/27 12:02:53;;;;;;;;;;;;;;;9.09;56.49;95915.41;5114258;28;1050;-60
2022/11/27 12:05:22;;;;;;;;;;;;;;;8.97;56.28;95908.47;5114112;28;1145;-59
2022/11/27 12:07:51;;;;;;;;;;;;;;;8.83;56.43;95912.34;5114239;28;1087;-59
2022/11/27 12:10:27;;;;;;;;;;;;;;;8.96;56.72;95893.47;5114073;28;1988;-60
2022/11/27 12:13:11;;;;;;;;;;;;;;;9.08;55.29;95899.53;5113969;28;1192;-60
2022/11/27 12:16:06;;;;;;;;;;;;;;;9.03;55.70;95888.41;5113961;28;957;-60
2022/11/27 12:18:38;;;;;;;;;;;;;;;8.70;55.92;95895.69;5112143;28;1489;-60
2022/11/27 12:21:24;;;;;;;;;;;;;;;8.68;57.08;95889.66;5113955;28;1025;-60
2022/11/27 12:24:10;;;;;;;;;;;;;;;8.83;57.12;95890.16;5114052;28;1036;-59
2022/11/27 12:26:48;;;;;;;;;;;;;;;8.94;56.52;95895.41;5114256;28;1053;-59
2022/11/27 12:29:30;;;;;;;;;;;;;;;8.96;55.96;95880.13;5113971;28;1998;-60
2022/11/27 12:32:14;;;;;;;;;;;;;;;8.89;56.21;95879.78;5113843;28;1164;-59
2022/11/27 12:34:40;;;;;;;;;;;;;;;8.86;56.33;95882.75;5112983;28;1291;-60
2022/11/27 12:37:07;;;;;;;;;;;;;;;8.89;56.43;95890.47;5113684;28;1060;-60
2022/11/27 12:39:52;;;;;;;;;;;;;;;8.89;56.86;95881.63;5114087;28;1091;-60
2022/11/27 12:42:33;;;;;;;;;;;;;;;8.89;56.27;95878.97;5113465;28;1272;-59
2022/11/27 12:45:14;;;;;;;;;;;;;;;8.88;57.00;95872.78;5113658;28;1305;-60
2022/11/27 12:47:47;;;;;;;;;;;;;;;8.87;56.71;95875.59;5114055;28;957;-60
2022/11/27 12:50:13;;;;;;;;;;;;;;;8.86;57.41;95879.22;5112659;28;2009;-60
2022/11/27 12:52:41;;;;;;;;;;;;;;;8.87;57.66;95876.41;5112473;28;1169;-59
2022/11/27 12:55:13;;;;;;;;;;;;;;;8.82;57.51;95875.13;5112480;28;1439;-60
2022/11/27 12:57:42;;;;;;;;;;;;;;;8.78;57.52;95874.53;5113742;28;1036;-60
2022/11/27 13:00:16;;;;;;;;;;;;;;;8.79;56.93;95869.09;5113835;28;991;-60
2022/11/27 13:02:49;;;;;;;;;;;;;;;8.83;57.46;95863.50;5113416;28;1239;-59
2022/11/27 13:05:19;;;;;;;;;;;;;;;8.78;57.14;95864.75;5113524;28;1286;-60
2022/11/27 13:07:48;;;;;;;;;;;;;;;8.82;56.73;95868.00;5113646;28;1043;-60
2022/11/27 13:10:17;;;;;;;;;;;;;;;8.84;57.15;95863.38;5113712;28;1918;-60
2022/11/27 13:12:49;;;;;;;;;;;;;;;8.84;56.64;95862.50;5113439;28;1057;-79
2022/11/27 13:15:20;;;;;;;;;;;;;;;8.71;56.81;95860.06;5113621;28;948;-59
2022/11/27 13:17:48;;;;;;;;;;;;;;;8.75;57.24;95861.50;5113583;28;1043;-62
2022/11/27 13:20:16;;;;;;;;;;;;;;;8.74;57.07;95860.63;5113455;28;1052;-60